sensor_id;sensor_type;location;lat;lon;timestamp;P1;durP1;ratioP1;P2;durP2;ratioP2
2658;SDS011;1339;53.304;10.406;2023-12-07T00:02:18;41.80;;;24.88;;
2658;SDS011;1339;53.304;10.406;2023-12-07T00:04:45;43.45;;;24.98;;
2658;SDS011;1339;53.304;10.406;2023-12-07T00:07:13;53.35;;;28.50;;
2658;SDS011;1339;53.304;10.406;2023-12-07T00:09:41;42.85;;;27.55;;
2658;SDS011;1339;53.304;10.406;2023-12-07T00:12:08;50.13;;;25.73;;
2658;SDS011;1339;53.304;10.406;2023-12-07T00:14:36;43.28;;;26.83;;
2658;SDS011;1339;53.304;10.406;2023-12-07T00:17:03;49.92;;;25.17;;
2658;SDS011;1339;53.304;10.406;2023-12-07T00:19:30;48.97;;;26.55;;
2658;SDS011;1339;53.304;10.406;2023-12-07T00:21:57;44.97;;;25.35;;
2658;SDS011;1339;53.304;10.406;2023-12-07T00:24:25;45.30;;;26.25;;
2658;SDS011;1339;53.304;10.406;2023-12-07T00:26:53;50.80;;;27.20;;
2658;SDS011;1339;53.304;10.406;2023-12-07T00:29:21;44.75;;;24.50;;
2658;SDS011;1339;53.304;10.406;2023-12-07T00:31:48;46.65;;;25.88;;
2658;SDS011;1339;53.304;10.406;2023-12-07T00:34:17;48.17;;;26.55;;
2658;SDS011;1339;53.304;10.406;2023-12-07T00:36:44;39.13;;;23.75;;
2658;SDS011;1339;53.304;10.406;2023-12-07T00:39:11;53.50;;;27.40;;
2658;SDS011;1339;53.304;10.406;2023-12-07T00:41:38;44.67;;;26.67;;
2658;SDS011;1339;53.304;10.406;2023-12-07T00:44:07;38.83;;;24.58;;
2658;SDS011;1339;53.304;10.406;2023-12-07T00:46:34;47.70;;;28.17;;
2658;SDS011;1339;53.304;10.406;2023-12-07T00:49:01;41.72;;;26.73;;
2658;SDS011;1339;53.304;10.406;2023-12-07T00:51:28;51.00;;;29.67;;
2658;SDS011;1339;53.304;10.406;2023-12-07T00:53:56;51.67;;;28.88;;
2658;SDS011;1339;53.304;10.406;2023-12-07T00:56:23;49.25;;;28.25;;
2658;SDS011;1339;53.304;10.406;2023-12-07T00:58:50;41.58;;;26.30;;
2658;SDS011;1339;53.304;10.406;2023-12-07T01:01:19;48.17;;;28.40;;
2658;SDS011;1339;53.304;10.406;2023-12-07T01:03:46;43.38;;;26.08;;
2658;SDS011;1339;53.304;10.406;2023-12-07T01:06:13;46.65;;;28.67;;
2658;SDS011;1339;53.304;10.406;2023-12-07T01:08:41;43.13;;;27.38;;
2658;SDS011;1339;53.304;10.406;2023-12-07T01:11:09;43.60;;;26.52;;
2658;SDS011;1339;53.304;10.406;2023-12-07T01:13:36;47.65;;;24.48;;
2658;SDS011;1339;53.304;10.406;2023-12-07T01:16:03;41.55;;;25.02;;
2658;SDS011;1339;53.304;10.406;2023-12-07T01:18:32;38.70;;;25.73;;
2658;SDS011;1339;53.304;10.406;2023-12-07T01:20:59;41.22;;;26.33;;
2658;SDS011;1339;53.304;10.406;2023-12-07T01:23:26;39.15;;;24.38;;
2658;SDS011;1339;53.304;10.406;2023-12-07T01:25:53;39.50;;;26.52;;
2658;SDS011;1339;53.304;10.406;2023-12-07T01:28:21;44.55;;;26.95;;
2658;SDS011;1339;53.304;10.406;2023-12-07T01:30:48;39.10;;;24.90;;
2658;SDS011;1339;53.304;10.406;2023-12-07T01:33:15;43.75;;;25.02;;
2658;SDS011;1339;53.304;10.406;2023-12-07T01:35:44;42.42;;;24.25;;
2658;SDS011;1339;53.304;10.406;2023-12-07T01:38:11;42.60;;;25.92;;
2658;SDS011;1339;53.304;10.406;2023-12-07T01:40:38;40.67;;;25.80;;
2658;SDS011;1339;53.304;10.406;2023-12-07T01:43:05;44.42;;;25.50;;
2658;SDS011;1339;53.304;10.406;2023-12-07T01:45:33;44.58;;;26.52;;
2658;SDS011;1339;53.304;10.406;2023-12-07T01:48:00;36.83;;;23.58;;
2658;SDS011;1339;53.304;10.406;2023-12-07T01:50:27;43.33;;;25.95;;
2658;SDS011;1339;53.304;10.406;2023-12-07T01:52:57;34.83;;;22.90;;
2658;SDS011;1339;53.304;10.406;2023-12-07T01:55:26;39.28;;;25.60;;
2658;SDS011;1339;53.304;10.406;2023-12-07T01:57:54;44.00;;;24.75;;
2658;SDS011;1339;53.304;10.406;2023-12-07T02:00:21;44.78;;;26.95;;
2658;SDS011;1339;53.304;10.406;2023-12-07T02:02:50;38.92;;;23.33;;
2658;SDS011;1339;53.304;10.406;2023-12-07T02:05:17;46.08;;;24.50;;
2658;SDS011;1339;53.304;10.406;2023-12-07T02:07:44;39.15;;;25.73;;
2658;SDS011;1339;53.304;10.406;2023-12-07T02:10:14;43.30;;;26.00;;
2658;SDS011;1339;53.304;10.406;2023-12-07T02:12:41;37.67;;;23.90;;
2658;SDS011;1339;53.304;10.406;2023-12-07T02:15:09;40.45;;;24.67;;
2658;SDS011;1339;53.304;10.406;2023-12-07T02:17:38;39.75;;;24.08;;
2658;SDS011;1339;53.304;10.406;2023-12-07T02:20:08;43.72;;;24.80;;
2658;SDS011;1339;53.304;10.406;2023-12-07T02:22:42;40.00;;;24.27;;
2658;SDS011;1339;53.304;10.406;2023-12-07T02:25:10;45.42;;;27.58;;
2658;SDS011;1339;53.304;10.406;2023-12-07T02:27:41;39.72;;;26.50;;
2658;SDS011;1339;53.304;10.406;2023-12-07T02:30:11;40.40;;;25.05;;
2658;SDS011;1339;53.304;10.406;2023-12-07T02:32:38;42.88;;;26.45;;
2658;SDS011;1339;53.304;10.406;2023-12-07T02:35:07;40.55;;;24.08;;
2658;SDS011;1339;53.304;10.406;2023-12-07T02:37:35;38.90;;;24.65;;
2658;SDS011;1339;53.304;10.406;2023-12-07T02:40:05;39.10;;;27.45;;
2658;SDS011;1339;53.304;10.406;2023-12-07T02:42:35;40.83;;;25.20;;
2658;SDS011;1339;53.304;10.406;2023-12-07T02:45:05;48.30;;;27.60;;
2658;SDS011;1339;53.304;10.406;2023-12-07T02:47:32;47.40;;;27.20;;
2658;SDS011;1339;53.304;10.406;2023-12-07T02:50:00;50.20;;;28.60;;
2658;SDS011;1339;53.304;10.406;2023-12-07T02:52:27;46.95;;;28.23;;
2658;SDS011;1339;53.304;10.406;2023-12-07T02:54:54;52.55;;;27.42;;
2658;SDS011;1339;53.304;10.406;2023-12-07T02:57:22;42.85;;;25.42;;
2658;SDS011;1339;53.304;10.406;2023-12-07T02:59:49;56.03;;;29.00;;
2658;SDS011;1339;53.304;10.406;2023-12-07T03:02:17;62.40;;;30.90;;
2658;SDS011;1339;53.304;10.406;2023-12-07T03:04:45;52.50;;;31.13;;
2658;SDS011;1339;53.304;10.406;2023-12-07T03:07:12;55.55;;;29.27;;
2658;SDS011;1339;53.304;10.406;2023-12-07T03:09:40;58.42;;;29.85;;
2658;SDS011;1339;53.304;10.406;2023-12-07T03:12:07;57.35;;;28.08;;
2658;SDS011;1339;53.304;10.406;2023-12-07T03:14:34;67.85;;;30.92;;
2658;SDS011;1339;53.304;10.406;2023-12-07T03:17:02;63.90;;;29.90;;
2658;SDS011;1339;53.304;10.406;2023-12-07T03:19:30;62.35;;;31.73;;
2658;SDS011;1339;53.304;10.406;2023-12-07T03:21:57;77.05;;;34.50;;
2658;SDS011;1339;53.304;10.406;2023-12-07T03:24:25;66.72;;;31.85;;
2658;SDS011;1339;53.304;10.406;2023-12-07T03:26:52;69.15;;;30.52;;
2658;SDS011;1339;53.304;10.406;2023-12-07T03:29:19;69.10;;;29.80;;
2658;SDS011;1339;53.304;10.406;2023-12-07T03:31:46;65.05;;;33.13;;
2658;SDS011;1339;53.304;10.406;2023-12-07T03:34:13;64.00;;;30.40;;
2658;SDS011;1339;53.304;10.406;2023-12-07T03:36:46;61.72;;;30.20;;
2658;SDS011;1339;53.304;10.406;2023-12-07T03:39:14;57.13;;;30.95;;
2658;SDS011;1339;53.304;10.406;2023-12-07T03:41:43;66.68;;;30.38;;
2658;SDS011;1339;53.304;10.406;2023-12-07T03:44:10;66.03;;;31.73;;
2658;SDS011;1339;53.304;10.406;2023-12-07T03:46:38;71.53;;;34.78;;
2658;SDS011;1339;53.304;10.406;2023-12-07T03:49:05;60.28;;;31.77;;
2658;SDS011;1339;53.304;10.406;2023-12-07T03:51:32;69.35;;;30.55;;
2658;SDS011;1339;53.304;10.406;2023-12-07T03:54:02;62.30;;;28.88;;
2658;SDS011;1339;53.304;10.406;2023-12-07T03:56:31;66.38;;;30.88;;
2658;SDS011;1339;53.304;10.406;2023-12-07T03:58:58;62.42;;;30.75;;
2658;SDS011;1339;53.304;10.406;2023-12-07T04:01:26;61.85;;;29.20;;
2658;SDS011;1339;53.304;10.406;2023-12-07T04:03:54;61.67;;;27.33;;
2658;SDS011;1339;53.304;10.406;2023-12-07T04:06:22;56.30;;;31.02;;
2658;SDS011;1339;53.304;10.406;2023-12-07T04:08:49;59.78;;;29.55;;
2658;SDS011;1339;53.304;10.406;2023-12-07T04:11:18;59.60;;;28.38;;
2658;SDS011;1339;53.304;10.406;2023-12-07T04:13:45;57.53;;;27.30;;
2658;SDS011;1339;53.304;10.406;2023-12-07T04:16:13;65.50;;;29.98;;
2658;SDS011;1339;53.304;10.406;2023-12-07T04:18:40;59.92;;;29.65;;
2658;SDS011;1339;53.304;10.406;2023-12-07T04:21:07;60.00;;;28.40;;
2658;SDS011;1339;53.304;10.406;2023-12-07T04:23:34;61.00;;;29.13;;
2658;SDS011;1339;53.304;10.406;2023-12-07T04:26:02;67.20;;;28.60;;
2658;SDS011;1339;53.304;10.406;2023-12-07T04:28:30;74.07;;;35.30;;
2658;SDS011;1339;53.304;10.406;2023-12-07T04:30:58;72.05;;;31.33;;
2658;SDS011;1339;53.304;10.406;2023-12-07T04:33:25;68.90;;;31.50;;
2658;SDS011;1339;53.304;10.406;2023-12-07T04:35:52;67.35;;;32.70;;
2658;SDS011;1339;53.304;10.406;2023-12-07T04:38:19;55.78;;;30.73;;
2658;SDS011;1339;53.304;10.406;2023-12-07T04:40:47;51.35;;;28.33;;
2658;SDS011;1339;53.304;10.406;2023-12-07T04:43:14;63.67;;;30.00;;
2658;SDS011;1339;53.304;10.406;2023-12-07T04:45:43;65.95;;;32.28;;
2658;SDS011;1339;53.304;10.406;2023-12-07T04:48:10;60.28;;;27.83;;
2658;SDS011;1339;53.304;10.406;2023-12-07T04:50:37;53.25;;;27.80;;
2658;SDS011;1339;53.304;10.406;2023-12-07T04:53:04;62.60;;;34.13;;
2658;SDS011;1339;53.304;10.406;2023-12-07T04:55:32;56.38;;;31.15;;
2658;SDS011;1339;53.304;10.406;2023-12-07T04:57:59;56.33;;;29.85;;
2658;SDS011;1339;53.304;10.406;2023-12-07T05:00:26;60.17;;;30.48;;
2658;SDS011;1339;53.304;10.406;2023-12-07T05:02:55;49.95;;;31.00;;
2658;SDS011;1339;53.304;10.406;2023-12-07T05:05:22;55.22;;;29.35;;
2658;SDS011;1339;53.304;10.406;2023-12-07T05:07:50;67.28;;;33.45;;
2658;SDS011;1339;53.304;10.406;2023-12-07T05:10:17;54.30;;;28.70;;
2658;SDS011;1339;53.304;10.406;2023-12-07T05:12:44;57.80;;;31.02;;
2658;SDS011;1339;53.304;10.406;2023-12-07T05:15:11;64.15;;;34.50;;
2658;SDS011;1339;53.304;10.406;2023-12-07T05:17:38;49.47;;;28.70;;
2658;SDS011;1339;53.304;10.406;2023-12-07T05:20:07;49.90;;;29.20;;
2658;SDS011;1339;53.304;10.406;2023-12-07T05:22:37;50.95;;;28.02;;
2658;SDS011;1339;53.304;10.406;2023-12-07T05:25:05;55.22;;;29.23;;
2658;SDS011;1339;53.304;10.406;2023-12-07T05:27:32;53.03;;;29.45;;
2658;SDS011;1339;53.304;10.406;2023-12-07T05:29:59;52.35;;;30.05;;
2658;SDS011;1339;53.304;10.406;2023-12-07T05:32:27;53.40;;;29.10;;
2658;SDS011;1339;53.304;10.406;2023-12-07T05:34:54;57.63;;;32.33;;
2658;SDS011;1339;53.304;10.406;2023-12-07T05:37:22;57.25;;;33.10;;
2658;SDS011;1339;53.304;10.406;2023-12-07T05:39:49;58.92;;;32.17;;
2658;SDS011;1339;53.304;10.406;2023-12-07T05:42:17;60.25;;;33.75;;
2658;SDS011;1339;53.304;10.406;2023-12-07T05:44:44;53.65;;;30.10;;
2658;SDS011;1339;53.304;10.406;2023-12-07T05:47:12;54.00;;;30.83;;
2658;SDS011;1339;53.304;10.406;2023-12-07T05:49:39;53.03;;;30.30;;
2658;SDS011;1339;53.304;10.406;2023-12-07T05:52:06;49.03;;;30.10;;
2658;SDS011;1339;53.304;10.406;2023-12-07T05:54:35;50.72;;;31.85;;
2658;SDS011;1339;53.304;10.406;2023-12-07T05:57:02;51.80;;;31.95;;
2658;SDS011;1339;53.304;10.406;2023-12-07T05:59:29;52.05;;;31.30;;
2658;SDS011;1339;53.304;10.406;2023-12-07T06:01:56;57.42;;;30.02;;
2658;SDS011;1339;53.304;10.406;2023-12-07T06:04:24;54.78;;;31.00;;
2658;SDS011;1339;53.304;10.406;2023-12-07T06:06:51;47.67;;;29.60;;
2658;SDS011;1339;53.304;10.406;2023-12-07T06:09:18;43.72;;;24.98;;
2658;SDS011;1339;53.304;10.406;2023-12-07T06:11:47;46.65;;;27.58;;
2658;SDS011;1339;53.304;10.406;2023-12-07T06:14:14;41.60;;;24.35;;
2658;SDS011;1339;53.304;10.406;2023-12-07T06:16:41;40.58;;;22.98;;
2658;SDS011;1339;53.304;10.406;2023-12-07T06:19:08;42.22;;;22.27;;
2658;SDS011;1339;53.304;10.406;2023-12-07T06:21:35;49.10;;;26.10;;
2658;SDS011;1339;53.304;10.406;2023-12-07T06:24:03;43.60;;;24.45;;
2658;SDS011;1339;53.304;10.406;2023-12-07T06:26:31;42.03;;;24.45;;
2658;SDS011;1339;53.304;10.406;2023-12-07T06:28:59;51.63;;;28.20;;
2658;SDS011;1339;53.304;10.406;2023-12-07T06:31:27;44.83;;;26.50;;
2658;SDS011;1339;53.304;10.406;2023-12-07T06:33:54;45.50;;;28.40;;
2658;SDS011;1339;53.304;10.406;2023-12-07T06:36:22;46.25;;;28.23;;
2658;SDS011;1339;53.304;10.406;2023-12-07T06:38:51;46.78;;;27.77;;
2658;SDS011;1339;53.304;10.406;2023-12-07T06:41:18;44.30;;;29.45;;
2658;SDS011;1339;53.304;10.406;2023-12-07T06:43:45;43.70;;;29.95;;
2658;SDS011;1339;53.304;10.406;2023-12-07T06:46:14;48.33;;;30.95;;
2658;SDS011;1339;53.304;10.406;2023-12-07T06:48:41;47.40;;;28.48;;
2658;SDS011;1339;53.304;10.406;2023-12-07T06:51:09;50.88;;;30.55;;
2658;SDS011;1339;53.304;10.406;2023-12-07T06:53:37;55.83;;;32.17;;
2658;SDS011;1339;53.304;10.406;2023-12-07T06:56:05;62.97;;;33.08;;
2658;SDS011;1339;53.304;10.406;2023-12-07T06:58:33;50.42;;;33.60;;
2658;SDS011;1339;53.304;10.406;2023-12-07T07:01:00;55.10;;;32.20;;
2658;SDS011;1339;53.304;10.406;2023-12-07T07:03:28;56.17;;;32.60;;
2658;SDS011;1339;53.304;10.406;2023-12-07T07:05:56;64.75;;;32.60;;
2658;SDS011;1339;53.304;10.406;2023-12-07T07:08:24;54.97;;;30.60;;
2658;SDS011;1339;53.304;10.406;2023-12-07T07:10:51;51.70;;;29.00;;
2658;SDS011;1339;53.304;10.406;2023-12-07T07:13:18;56.17;;;31.08;;
2658;SDS011;1339;53.304;10.406;2023-12-07T07:15:46;59.05;;;31.55;;
2658;SDS011;1339;53.304;10.406;2023-12-07T07:18:13;62.03;;;34.10;;
2658;SDS011;1339;53.304;10.406;2023-12-07T07:20:42;54.25;;;31.45;;
2658;SDS011;1339;53.304;10.406;2023-12-07T07:23:09;58.05;;;28.75;;
2658;SDS011;1339;53.304;10.406;2023-12-07T07:25:37;48.25;;;29.05;;
2658;SDS011;1339;53.304;10.406;2023-12-07T07:28:05;60.83;;;34.13;;
2658;SDS011;1339;53.304;10.406;2023-12-07T07:30:32;52.38;;;29.85;;
2658;SDS011;1339;53.304;10.406;2023-12-07T07:33:00;54.13;;;27.73;;
2658;SDS011;1339;53.304;10.406;2023-12-07T07:35:27;49.53;;;29.23;;
2658;SDS011;1339;53.304;10.406;2023-12-07T07:37:56;48.33;;;28.92;;
2658;SDS011;1339;53.304;10.406;2023-12-07T07:40:23;52.55;;;28.20;;
2658;SDS011;1339;53.304;10.406;2023-12-07T07:42:50;46.70;;;29.75;;
2658;SDS011;1339;53.304;10.406;2023-12-07T07:45:18;53.65;;;30.98;;
2658;SDS011;1339;53.304;10.406;2023-12-07T07:47:45;51.72;;;31.60;;
2658;SDS011;1339;53.304;10.406;2023-12-07T07:50:12;55.00;;;32.10;;
2658;SDS011;1339;53.304;10.406;2023-12-07T07:52:40;47.83;;;29.67;;
2658;SDS011;1339;53.304;10.406;2023-12-07T07:55:10;54.17;;;32.47;;
2658;SDS011;1339;53.304;10.406;2023-12-07T07:57:37;53.08;;;31.92;;
2658;SDS011;1339;53.304;10.406;2023-12-07T08:00:05;52.25;;;31.63;;
2658;SDS011;1339;53.304;10.406;2023-12-07T08:02:33;54.35;;;29.85;;
2658;SDS011;1339;53.304;10.406;2023-12-07T08:05:01;49.25;;;30.50;;
2658;SDS011;1339;53.304;10.406;2023-12-07T08:07:28;47.60;;;29.10;;
2658;SDS011;1339;53.304;10.406;2023-12-07T08:09:55;55.33;;;31.08;;
2658;SDS011;1339;53.304;10.406;2023-12-07T08:12:24;48.55;;;30.75;;
2658;SDS011;1339;53.304;10.406;2023-12-07T08:14:51;48.47;;;30.58;;
2658;SDS011;1339;53.304;10.406;2023-12-07T08:17:18;53.05;;;30.70;;
2658;SDS011;1339;53.304;10.406;2023-12-07T08:19:46;52.17;;;29.50;;
2658;SDS011;1339;53.304;10.406;2023-12-07T08:22:13;46.17;;;28.75;;
2658;SDS011;1339;53.304;10.406;2023-12-07T08:24:40;40.00;;;26.30;;
2658;SDS011;1339;53.304;10.406;2023-12-07T08:27:08;44.53;;;27.88;;
2658;SDS011;1339;53.304;10.406;2023-12-07T08:29:36;45.28;;;28.52;;
2658;SDS011;1339;53.304;10.406;2023-12-07T08:32:04;45.10;;;27.38;;
2658;SDS011;1339;53.304;10.406;2023-12-07T08:34:31;47.55;;;27.95;;
2658;SDS011;1339;53.304;10.406;2023-12-07T08:36:59;44.30;;;28.65;;
2658;SDS011;1339;53.304;10.406;2023-12-07T08:39:27;44.13;;;29.85;;
2658;SDS011;1339;53.304;10.406;2023-12-07T08:41:55;48.25;;;29.95;;
2658;SDS011;1339;53.304;10.406;2023-12-07T08:44:22;44.60;;;28.95;;
2658;SDS011;1339;53.304;10.406;2023-12-07T08:46:51;51.65;;;31.98;;
2658;SDS011;1339;53.304;10.406;2023-12-07T08:49:19;48.13;;;29.05;;
2658;SDS011;1339;53.304;10.406;2023-12-07T08:51:46;46.58;;;29.48;;
2658;SDS011;1339;53.304;10.406;2023-12-07T08:54:13;46.30;;;31.08;;
2658;SDS011;1339;53.304;10.406;2023-12-07T08:56:43;42.63;;;28.42;;
2658;SDS011;1339;53.304;10.406;2023-12-07T08:59:10;45.95;;;29.85;;
2658;SDS011;1339;53.304;10.406;2023-12-07T09:01:38;43.42;;;28.75;;
2658;SDS011;1339;53.304;10.406;2023-12-07T09:04:06;46.80;;;30.35;;
2658;SDS011;1339;53.304;10.406;2023-12-07T09:06:34;44.75;;;28.40;;
2658;SDS011;1339;53.304;10.406;2023-12-07T09:09:01;49.83;;;29.42;;
2658;SDS011;1339;53.304;10.406;2023-12-07T09:11:29;45.95;;;30.50;;
2658;SDS011;1339;53.304;10.406;2023-12-07T09:13:56;43.70;;;26.98;;
2658;SDS011;1339;53.304;10.406;2023-12-07T09:16:23;45.35;;;30.98;;
2658;SDS011;1339;53.304;10.406;2023-12-07T09:18:51;42.50;;;28.60;;
2658;SDS011;1339;53.304;10.406;2023-12-07T09:21:20;45.17;;;29.73;;
2658;SDS011;1339;53.304;10.406;2023-12-07T09:23:48;37.80;;;26.83;;
2658;SDS011;1339;53.304;10.406;2023-12-07T09:26:15;38.78;;;27.88;;
2658;SDS011;1339;53.304;10.406;2023-12-07T09:28:42;39.28;;;25.50;;
2658;SDS011;1339;53.304;10.406;2023-12-07T09:31:09;40.75;;;28.50;;
2658;SDS011;1339;53.304;10.406;2023-12-07T09:33:37;42.50;;;28.65;;
2658;SDS011;1339;53.304;10.406;2023-12-07T09:36:04;46.22;;;30.05;;
2658;SDS011;1339;53.304;10.406;2023-12-07T09:38:36;44.63;;;28.75;;
2658;SDS011;1339;53.304;10.406;2023-12-07T09:41:03;42.75;;;27.20;;
2658;SDS011;1339;53.304;10.406;2023-12-07T09:43:30;41.97;;;28.02;;
2658;SDS011;1339;53.304;10.406;2023-12-07T09:45:58;39.95;;;27.73;;
2658;SDS011;1339;53.304;10.406;2023-12-07T09:48:36;43.97;;;31.10;;
2658;SDS011;1339;53.304;10.406;2023-12-07T09:51:11;41.75;;;28.25;;
2658;SDS011;1339;53.304;10.406;2023-12-07T09:53:39;42.58;;;27.60;;
2658;SDS011;1339;53.304;10.406;2023-12-07T09:56:10;43.90;;;29.75;;
2658;SDS011;1339;53.304;10.406;2023-12-07T09:58:43;45.10;;;27.10;;
2658;SDS011;1339;53.304;10.406;2023-12-07T10:01:11;41.25;;;28.13;;
2658;SDS011;1339;53.304;10.406;2023-12-07T10:03:40;35.90;;;26.23;;
2658;SDS011;1339;53.304;10.406;2023-12-07T10:06:08;38.10;;;28.65;;
2658;SDS011;1339;53.304;10.406;2023-12-07T10:08:35;43.00;;;28.63;;
2658;SDS011;1339;53.304;10.406;2023-12-07T10:11:10;45.03;;;29.60;;
2658;SDS011;1339;53.304;10.406;2023-12-07T10:13:39;41.30;;;29.10;;
2658;SDS011;1339;53.304;10.406;2023-12-07T10:16:09;41.90;;;28.25;;
2658;SDS011;1339;53.304;10.406;2023-12-07T10:18:44;38.22;;;27.13;;
2658;SDS011;1339;53.304;10.406;2023-12-07T10:21:11;38.05;;;28.70;;
2658;SDS011;1339;53.304;10.406;2023-12-07T10:23:40;38.95;;;27.60;;
2658;SDS011;1339;53.304;10.406;2023-12-07T10:26:10;44.60;;;30.60;;
2658;SDS011;1339;53.304;10.406;2023-12-07T10:28:37;43.25;;;30.73;;
2658;SDS011;1339;53.304;10.406;2023-12-07T10:31:08;38.88;;;27.17;;
2658;SDS011;1339;53.304;10.406;2023-12-07T10:33:35;35.90;;;27.30;;
2658;SDS011;1339;53.304;10.406;2023-12-07T10:36:03;39.67;;;28.42;;
2658;SDS011;1339;53.304;10.406;2023-12-07T10:38:31;41.30;;;29.48;;
2658;SDS011;1339;53.304;10.406;2023-12-07T10:41:01;43.78;;;31.27;;
2658;SDS011;1339;53.304;10.406;2023-12-07T10:43:32;40.28;;;28.02;;
2658;SDS011;1339;53.304;10.406;2023-12-07T10:46:03;41.28;;;29.25;;
2658;SDS011;1339;53.304;10.406;2023-12-07T10:48:32;43.83;;;29.02;;
2658;SDS011;1339;53.304;10.406;2023-12-07T10:51:00;41.38;;;29.20;;
2658;SDS011;1339;53.304;10.406;2023-12-07T10:53:37;37.50;;;26.98;;
2658;SDS011;1339;53.304;10.406;2023-12-07T10:56:05;38.15;;;27.00;;
2658;SDS011;1339;53.304;10.406;2023-12-07T10:58:37;43.17;;;29.38;;
2658;SDS011;1339;53.304;10.406;2023-12-07T11:01:06;39.47;;;27.75;;
2658;SDS011;1339;53.304;10.406;2023-12-07T11:03:34;40.83;;;31.30;;
2658;SDS011;1339;53.304;10.406;2023-12-07T11:06:02;37.40;;;28.08;;
2658;SDS011;1339;53.304;10.406;2023-12-07T11:08:33;38.83;;;28.40;;
2658;SDS011;1339;53.304;10.406;2023-12-07T11:11:04;37.85;;;28.85;;
2658;SDS011;1339;53.304;10.406;2023-12-07T11:13:33;37.22;;;26.98;;
2658;SDS011;1339;53.304;10.406;2023-12-07T11:16:04;36.30;;;26.55;;
2658;SDS011;1339;53.304;10.406;2023-12-07T11:18:31;38.70;;;28.15;;
2658;SDS011;1339;53.304;10.406;2023-12-07T11:20:59;37.55;;;27.55;;
2658;SDS011;1339;53.304;10.406;2023-12-07T11:23:27;33.58;;;26.50;;
2658;SDS011;1339;53.304;10.406;2023-12-07T11:25:55;40.50;;;27.15;;
2658;SDS011;1339;53.304;10.406;2023-12-07T11:28:33;38.95;;;26.77;;
2658;SDS011;1339;53.304;10.406;2023-12-07T11:31:01;36.35;;;25.77;;
2658;SDS011;1339;53.304;10.406;2023-12-07T11:33:30;35.20;;;27.15;;
2658;SDS011;1339;53.304;10.406;2023-12-07T11:36:04;34.15;;;26.50;;
2658;SDS011;1339;53.304;10.406;2023-12-07T11:38:31;39.75;;;28.33;;
2658;SDS011;1339;53.304;10.406;2023-12-07T11:40:58;32.13;;;24.92;;
2658;SDS011;1339;53.304;10.406;2023-12-07T11:43:36;36.78;;;26.77;;
2658;SDS011;1339;53.304;10.406;2023-12-07T11:46:05;37.67;;;27.70;;
2658;SDS011;1339;53.304;10.406;2023-12-07T11:48:33;39.50;;;29.38;;
2658;SDS011;1339;53.304;10.406;2023-12-07T11:51:01;33.75;;;27.02;;
2658;SDS011;1339;53.304;10.406;2023-12-07T11:53:29;36.70;;;26.65;;
2658;SDS011;1339;53.304;10.406;2023-12-07T11:55:56;38.97;;;27.30;;
2658;SDS011;1339;53.304;10.406;2023-12-07T11:58:24;32.58;;;24.90;;
2658;SDS011;1339;53.304;10.406;2023-12-07T12:00:52;33.40;;;25.33;;
2658;SDS011;1339;53.304;10.406;2023-12-07T12:03:19;36.00;;;26.30;;
2658;SDS011;1339;53.304;10.406;2023-12-07T12:05:48;31.88;;;25.27;;
2658;SDS011;1339;53.304;10.406;2023-12-07T12:08:15;38.65;;;26.05;;
2658;SDS011;1339;53.304;10.406;2023-12-07T12:10:43;36.00;;;28.20;;
2658;SDS011;1339;53.304;10.406;2023-12-07T12:13:11;31.88;;;24.15;;
2658;SDS011;1339;53.304;10.406;2023-12-07T12:15:39;33.70;;;25.15;;
2658;SDS011;1339;53.304;10.406;2023-12-07T12:18:06;33.78;;;26.65;;
2658;SDS011;1339;53.304;10.406;2023-12-07T12:20:37;37.63;;;26.55;;
2658;SDS011;1339;53.304;10.406;2023-12-07T12:23:06;33.00;;;24.83;;
2658;SDS011;1339;53.304;10.406;2023-12-07T12:25:34;35.00;;;26.05;;
2658;SDS011;1339;53.304;10.406;2023-12-07T12:28:02;31.00;;;24.65;;
2658;SDS011;1339;53.304;10.406;2023-12-07T12:30:29;33.08;;;26.33;;
2658;SDS011;1339;53.304;10.406;2023-12-07T12:32:57;30.92;;;23.17;;
2658;SDS011;1339;53.304;10.406;2023-12-07T12:35:25;29.55;;;22.58;;
2658;SDS011;1339;53.304;10.406;2023-12-07T12:37:52;27.40;;;21.67;;
2658;SDS011;1339;53.304;10.406;2023-12-07T12:40:22;30.40;;;21.95;;
2658;SDS011;1339;53.304;10.406;2023-12-07T12:42:50;26.73;;;22.10;;
2658;SDS011;1339;53.304;10.406;2023-12-07T12:45:18;33.30;;;24.45;;
2658;SDS011;1339;53.304;10.406;2023-12-07T12:47:46;30.63;;;22.58;;
2658;SDS011;1339;53.304;10.406;2023-12-07T12:52:57;32.85;;;24.55;;
2658;SDS011;1339;53.304;10.406;2023-12-07T12:55:26;28.45;;;20.80;;
2658;SDS011;1339;53.304;10.406;2023-12-07T12:57:55;28.85;;;22.08;;
2658;SDS011;1339;53.304;10.406;2023-12-07T13:00:24;30.77;;;23.02;;
2658;SDS011;1339;53.304;10.406;2023-12-07T13:02:51;32.83;;;23.08;;
2658;SDS011;1339;53.304;10.406;2023-12-07T13:05:18;32.72;;;24.00;;
2658;SDS011;1339;53.304;10.406;2023-12-07T13:07:45;28.45;;;22.50;;
2658;SDS011;1339;53.304;10.406;2023-12-07T13:10:14;31.92;;;23.25;;
2658;SDS011;1339;53.304;10.406;2023-12-07T13:12:42;32.72;;;22.02;;
2658;SDS011;1339;53.304;10.406;2023-12-07T13:15:10;27.05;;;21.95;;
2658;SDS011;1339;53.304;10.406;2023-12-07T13:17:38;27.10;;;21.42;;
2658;SDS011;1339;53.304;10.406;2023-12-07T13:20:06;28.45;;;22.00;;
2658;SDS011;1339;53.304;10.406;2023-12-07T13:22:35;26.63;;;21.38;;
2658;SDS011;1339;53.304;10.406;2023-12-07T13:25:03;28.25;;;23.20;;
2658;SDS011;1339;53.304;10.406;2023-12-07T13:27:31;27.52;;;20.85;;
2658;SDS011;1339;53.304;10.406;2023-12-07T13:30:00;27.98;;;21.63;;
2658;SDS011;1339;53.304;10.406;2023-12-07T13:32:30;21.50;;;18.77;;
2658;SDS011;1339;53.304;10.406;2023-12-07T13:34:57;26.52;;;20.98;;
2658;SDS011;1339;53.304;10.406;2023-12-07T13:37:24;28.30;;;22.40;;
2658;SDS011;1339;53.304;10.406;2023-12-07T13:39:52;27.63;;;21.77;;
2658;SDS011;1339;53.304;10.406;2023-12-07T13:42:23;32.22;;;23.83;;
2658;SDS011;1339;53.304;10.406;2023-12-07T13:44:51;29.10;;;22.70;;
2658;SDS011;1339;53.304;10.406;2023-12-07T13:47:20;25.52;;;22.20;;
2658;SDS011;1339;53.304;10.406;2023-12-07T13:49:51;29.05;;;22.48;;
2658;SDS011;1339;53.304;10.406;2023-12-07T13:52:18;29.38;;;21.65;;
2658;SDS011;1339;53.304;10.406;2023-12-07T13:54:45;28.83;;;20.55;;
2658;SDS011;1339;53.304;10.406;2023-12-07T13:57:13;23.27;;;18.95;;
2658;SDS011;1339;53.304;10.406;2023-12-07T13:59:41;25.20;;;20.30;;
2658;SDS011;1339;53.304;10.406;2023-12-07T14:02:08;27.25;;;21.30;;
2658;SDS011;1339;53.304;10.406;2023-12-07T14:04:36;22.80;;;19.15;;
2658;SDS011;1339;53.304;10.406;2023-12-07T14:07:08;24.88;;;19.73;;
2658;SDS011;1339;53.304;10.406;2023-12-07T14:09:36;25.30;;;19.75;;
2658;SDS011;1339;53.304;10.406;2023-12-07T14:12:03;27.40;;;21.88;;
2658;SDS011;1339;53.304;10.406;2023-12-07T14:14:31;26.88;;;21.65;;
2658;SDS011;1339;53.304;10.406;2023-12-07T14:16:59;35.78;;;27.77;;
2658;SDS011;1339;53.304;10.406;2023-12-07T14:19:26;38.30;;;28.60;;
2658;SDS011;1339;53.304;10.406;2023-12-07T14:21:55;34.92;;;24.40;;
2658;SDS011;1339;53.304;10.406;2023-12-07T14:24:23;27.30;;;20.73;;
2658;SDS011;1339;53.304;10.406;2023-12-07T14:26:50;28.30;;;22.17;;
2658;SDS011;1339;53.304;10.406;2023-12-07T14:29:19;27.60;;;20.02;;
2658;SDS011;1339;53.304;10.406;2023-12-07T14:31:48;23.55;;;20.58;;
2658;SDS011;1339;53.304;10.406;2023-12-07T14:34:15;22.42;;;18.00;;
2658;SDS011;1339;53.304;10.406;2023-12-07T14:36:43;25.15;;;19.00;;
2658;SDS011;1339;53.304;10.406;2023-12-07T14:39:12;25.70;;;20.67;;
2658;SDS011;1339;53.304;10.406;2023-12-07T14:41:43;25.63;;;21.55;;